首页
METAR-TAF:

METAR-TAF

机场 :

金斯顿, 安大略省, 加拿大

纬度: 44-13N, 经度: 076-36W, 海拔: 93米

当前天气观测

该预报发布于1小时和16分钟前的04:00 UTC
风速12节,风向北转东北
温度 3°C
湿度 60%
气压 1015 hPa
能見度: 24.1公里
多云层高于3800英尺
阴天层高于5100英尺

METAR: CYGK 260400Z 02012KT 15SM BKN038 OVC051 03/M04 A2998 RMK SC7SC1 LAST STFD OBS/NXT 261100Z SLP158

时间: 00:16 (05:16 UTC)

预报

该预报发布于3小时和27分钟前的01:49 UTC
预报有效从26日的 02点(UTC)到 26日的 04点(UTC)
风速10节,风向
能見度: 10公里
阴天层高于4000英尺

TAF: CYGK 260149Z 2602/2604 01010KT P6SM OVC040 RMK NXT FCST WILL BE ISSUED AT 261245Z

超过4000个机场的气象观测和天气预报(METAR&TAF报告)。

可查询的气象台以黄色和红色小点在地图上表示。

将鼠标移到小点上方,可查看气象台名称。

然后点击查看天气观测和预报。

如需切换地图:点击带黑十字的绿色按钮放大地图;点击带横线的绿色按钮缩小地图;或者点击绿色箭头查看邻近地区的地图。


METAR-TAF: